sensor_id;sensor_type;location;lat;lon;timestamp;P1;durP1;ratioP1;P2;durP2;ratioP2
57820;SDS011;43649;49.474;8.466;2022-08-11T00:02:14;4.47;;;2.17;;
57820;SDS011;43649;49.474;8.466;2022-08-11T00:04:41;4.22;;;1.88;;
57820;SDS011;43649;49.474;8.466;2022-08-11T00:07:07;1.88;;;1.65;;
57820;SDS011;43649;49.474;8.466;2022-08-11T00:09:35;5.75;;;2.05;;
57820;SDS011;43649;49.474;8.466;2022-08-11T00:12:02;2.33;;;1.90;;
57820;SDS011;43649;49.474;8.466;2022-08-11T00:14:30;3.25;;;2.95;;
57820;SDS011;43649;49.474;8.466;2022-08-11T00:16:58;5.85;;;2.55;;
57820;SDS011;43649;49.474;8.466;2022-08-11T00:19:26;2.28;;;1.95;;
57820;SDS011;43649;49.474;8.466;2022-08-11T00:21:55;5.72;;;2.33;;
57820;SDS011;43649;49.474;8.466;2022-08-11T00:24:21;3.00;;;2.10;;
57820;SDS011;43649;49.474;8.466;2022-08-11T00:26:48;1.90;;;1.80;;
57820;SDS011;43649;49.474;8.466;2022-08-11T00:29:16;2.08;;;1.90;;
57820;SDS011;43649;49.474;8.466;2022-08-11T00:31:44;4.18;;;2.00;;
57820;SDS011;43649;49.474;8.466;2022-08-11T00:34:12;4.65;;;2.47;;
57820;SDS011;43649;49.474;8.466;2022-08-11T00:36:42;5.18;;;2.65;;
57820;SDS011;43649;49.474;8.466;2022-08-11T00:39:09;2.67;;;2.08;;
57820;SDS011;43649;49.474;8.466;2022-08-11T00:41:38;5.78;;;1.83;;
57820;SDS011;43649;49.474;8.466;2022-08-11T00:44:13;5.88;;;2.40;;
57820;SDS011;43649;49.474;8.466;2022-08-11T00:46:53;4.15;;;2.05;;
57820;SDS011;43649;49.474;8.466;2022-08-11T00:49:32;2.35;;;2.10;;
57820;SDS011;43649;49.474;8.466;2022-08-11T00:52:12;5.80;;;2.00;;
57820;SDS011;43649;49.474;8.466;2022-08-11T00:54:59;3.58;;;2.00;;
57820;SDS011;43649;49.474;8.466;2022-08-11T00:57:55;3.60;;;1.85;;
57820;SDS011;43649;49.474;8.466;2022-08-11T01:00:53;9.82;;;2.28;;
57820;SDS011;43649;49.474;8.466;2022-08-11T01:03:35;2.20;;;1.60;;
57820;SDS011;43649;49.474;8.466;2022-08-11T01:12:23;4.43;;;2.15;;
57820;SDS011;43649;49.474;8.466;2022-08-11T01:21:02;4.32;;;1.77;;
57820;SDS011;43649;49.474;8.466;2022-08-11T01:23:53;2.08;;;1.95;;
57820;SDS011;43649;49.474;8.466;2022-08-11T01:29:57;7.50;;;2.53;;
57820;SDS011;43649;49.474;8.466;2022-08-11T01:33:03;3.80;;;2.28;;
57820;SDS011;43649;49.474;8.466;2022-08-11T01:36:09;3.92;;;2.47;;
57820;SDS011;43649;49.474;8.466;2022-08-11T01:39:09;3.20;;;2.10;;
57820;SDS011;43649;49.474;8.466;2022-08-11T01:41:58;3.92;;;2.30;;
57820;SDS011;43649;49.474;8.466;2022-08-11T01:44:57;5.80;;;2.20;;
57820;SDS011;43649;49.474;8.466;2022-08-11T01:47:31;6.13;;;2.35;;
57820;SDS011;43649;49.474;8.466;2022-08-11T01:50:04;3.28;;;2.20;;
57820;SDS011;43649;49.474;8.466;2022-08-11T01:52:41;2.40;;;2.25;;
57820;SDS011;43649;49.474;8.466;2022-08-11T01:55:26;2.72;;;1.90;;
57820;SDS011;43649;49.474;8.466;2022-08-11T01:58:00;2.50;;;1.83;;
57820;SDS011;43649;49.474;8.466;2022-08-11T02:00:35;2.28;;;2.10;;
57820;SDS011;43649;49.474;8.466;2022-08-11T02:03:13;5.38;;;1.80;;
57820;SDS011;43649;49.474;8.466;2022-08-11T02:05:46;12.75;;;2.45;;
57820;SDS011;43649;49.474;8.466;2022-08-11T02:08:26;3.22;;;2.00;;
57820;SDS011;43649;49.474;8.466;2022-08-11T02:11:14;3.30;;;2.15;;
57820;SDS011;43649;49.474;8.466;2022-08-11T02:13:48;2.55;;;2.35;;
57820;SDS011;43649;49.474;8.466;2022-08-11T02:16:20;2.15;;;2.05;;
57820;SDS011;43649;49.474;8.466;2022-08-11T02:18:54;2.55;;;2.35;;
57820;SDS011;43649;49.474;8.466;2022-08-11T02:21:26;5.07;;;2.28;;
57820;SDS011;43649;49.474;8.466;2022-08-11T02:23:57;2.75;;;2.10;;
57820;SDS011;43649;49.474;8.466;2022-08-11T02:26:32;2.15;;;1.92;;
57820;SDS011;43649;49.474;8.466;2022-08-11T02:29:06;2.80;;;1.80;;
57820;SDS011;43649;49.474;8.466;2022-08-11T02:31:44;6.97;;;2.17;;
57820;SDS011;43649;49.474;8.466;2022-08-11T02:34:19;7.45;;;2.33;;
57820;SDS011;43649;49.474;8.466;2022-08-11T02:36:51;4.35;;;2.10;;
57820;SDS011;43649;49.474;8.466;2022-08-11T02:39:21;2.15;;;1.95;;
57820;SDS011;43649;49.474;8.466;2022-08-11T02:41:55;6.00;;;1.88;;
57820;SDS011;43649;49.474;8.466;2022-08-11T02:44:30;3.85;;;2.13;;
57820;SDS011;43649;49.474;8.466;2022-08-11T02:47:02;3.05;;;2.03;;
57820;SDS011;43649;49.474;8.466;2022-08-11T02:49:37;5.90;;;1.77;;
57820;SDS011;43649;49.474;8.466;2022-08-11T02:52:13;1.80;;;1.70;;
57820;SDS011;43649;49.474;8.466;2022-08-11T02:54:47;2.75;;;1.95;;
57820;SDS011;43649;49.474;8.466;2022-08-11T02:57:23;2.45;;;1.95;;
57820;SDS011;43649;49.474;8.466;2022-08-11T02:59:54;2.80;;;2.22;;
57820;SDS011;43649;49.474;8.466;2022-08-11T03:02:31;6.35;;;2.70;;
57820;SDS011;43649;49.474;8.466;2022-08-11T03:05:11;1.95;;;1.85;;
57820;SDS011;43649;49.474;8.466;2022-08-11T03:07:49;3.97;;;1.90;;
57820;SDS011;43649;49.474;8.466;2022-08-11T03:10:31;1.92;;;1.83;;
57820;SDS011;43649;49.474;8.466;2022-08-11T03:13:03;2.28;;;2.08;;
57820;SDS011;43649;49.474;8.466;2022-08-11T03:15:41;1.90;;;1.80;;
57820;SDS011;43649;49.474;8.466;2022-08-11T03:18:17;5.05;;;2.60;;
57820;SDS011;43649;49.474;8.466;2022-08-11T03:20:50;3.15;;;1.92;;
57820;SDS011;43649;49.474;8.466;2022-08-11T03:23:24;9.93;;;2.60;;
57820;SDS011;43649;49.474;8.466;2022-08-11T03:25:57;8.65;;;2.10;;
57820;SDS011;43649;49.474;8.466;2022-08-11T03:28:31;6.85;;;2.55;;
57820;SDS011;43649;49.474;8.466;2022-08-11T03:31:06;3.08;;;2.28;;
57820;SDS011;43649;49.474;8.466;2022-08-11T03:33:43;2.30;;;2.08;;
57820;SDS011;43649;49.474;8.466;2022-08-11T03:36:15;2.17;;;2.03;;
57820;SDS011;43649;49.474;8.466;2022-08-11T03:39:05;5.00;;;1.70;;
57820;SDS011;43649;49.474;8.466;2022-08-11T03:41:36;2.28;;;2.00;;
57820;SDS011;43649;49.474;8.466;2022-08-11T03:44:09;2.65;;;2.20;;
57820;SDS011;43649;49.474;8.466;2022-08-11T03:46:55;6.28;;;2.60;;
57820;SDS011;43649;49.474;8.466;2022-08-11T03:49:32;8.40;;;2.63;;
57820;SDS011;43649;49.474;8.466;2022-08-11T03:52:20;4.43;;;2.30;;
57820;SDS011;43649;49.474;8.466;2022-08-11T03:54:53;2.97;;;2.40;;
57820;SDS011;43649;49.474;8.466;2022-08-11T03:57:42;3.13;;;2.22;;
57820;SDS011;43649;49.474;8.466;2022-08-11T04:00:28;3.53;;;1.92;;
57820;SDS011;43649;49.474;8.466;2022-08-11T04:03:24;7.82;;;3.17;;
57820;SDS011;43649;49.474;8.466;2022-08-11T04:06:17;5.03;;;2.20;;
57820;SDS011;43649;49.474;8.466;2022-08-11T04:09:38;6.80;;;2.42;;
57820;SDS011;43649;49.474;8.466;2022-08-11T04:15:40;3.25;;;2.38;;
57820;SDS011;43649;49.474;8.466;2022-08-11T04:21:43;4.55;;;2.08;;
57820;SDS011;43649;49.474;8.466;2022-08-11T04:24:25;2.85;;;2.42;;
57820;SDS011;43649;49.474;8.466;2022-08-11T04:27:19;8.68;;;2.13;;
57820;SDS011;43649;49.474;8.466;2022-08-11T04:30:04;5.55;;;2.33;;
57820;SDS011;43649;49.474;8.466;2022-08-11T04:32:52;8.47;;;2.43;;
57820;SDS011;43649;49.474;8.466;2022-08-11T04:35:38;9.57;;;2.60;;
57820;SDS011;43649;49.474;8.466;2022-08-11T04:38:21;10.77;;;2.55;;
57820;SDS011;43649;49.474;8.466;2022-08-11T04:44:09;3.35;;;3.13;;
57820;SDS011;43649;49.474;8.466;2022-08-11T04:49:49;9.25;;;3.30;;
57820;SDS011;43649;49.474;8.466;2022-08-11T04:52:40;8.10;;;3.50;;
57820;SDS011;43649;49.474;8.466;2022-08-11T04:55:25;6.80;;;3.47;;
57820;SDS011;43649;49.474;8.466;2022-08-11T04:58:03;9.80;;;3.70;;
57820;SDS011;43649;49.474;8.466;2022-08-11T05:00:44;9.32;;;3.17;;
57820;SDS011;43649;49.474;8.466;2022-08-11T05:03:28;12.70;;;3.50;;
57820;SDS011;43649;49.474;8.466;2022-08-11T05:06:24;10.73;;;4.47;;
57820;SDS011;43649;49.474;8.466;2022-08-11T05:12:18;11.98;;;3.60;;
57820;SDS011;43649;49.474;8.466;2022-08-11T05:14:52;21.60;;;4.35;;
57820;SDS011;43649;49.474;8.466;2022-08-11T05:17:29;17.30;;;3.80;;
57820;SDS011;43649;49.474;8.466;2022-08-11T05:20:00;13.48;;;4.05;;
57820;SDS011;43649;49.474;8.466;2022-08-11T05:22:28;17.27;;;4.28;;
57820;SDS011;43649;49.474;8.466;2022-08-11T05:24:56;12.90;;;3.65;;
57820;SDS011;43649;49.474;8.466;2022-08-11T05:30:00;10.75;;;4.03;;
57820;SDS011;43649;49.474;8.466;2022-08-11T05:32:29;10.77;;;4.15;;
57820;SDS011;43649;49.474;8.466;2022-08-11T05:35:00;22.38;;;4.97;;
57820;SDS011;43649;49.474;8.466;2022-08-11T05:37:32;18.23;;;4.10;;
57820;SDS011;43649;49.474;8.466;2022-08-11T05:40:04;24.73;;;4.38;;
57820;SDS011;43649;49.474;8.466;2022-08-11T05:42:32;10.68;;;4.00;;
57820;SDS011;43649;49.474;8.466;2022-08-11T05:45:04;22.67;;;4.57;;
57820;SDS011;43649;49.474;8.466;2022-08-11T05:47:36;12.48;;;4.30;;
57820;SDS011;43649;49.474;8.466;2022-08-11T05:50:01;25.45;;;4.82;;
57820;SDS011;43649;49.474;8.466;2022-08-11T05:52:34;9.27;;;4.68;;
57820;SDS011;43649;49.474;8.466;2022-08-11T05:55:02;21.70;;;4.70;;
57820;SDS011;43649;49.474;8.466;2022-08-11T05:57:29;24.77;;;4.85;;
57820;SDS011;43649;49.474;8.466;2022-08-11T05:59:58;30.50;;;5.00;;
57820;SDS011;43649;49.474;8.466;2022-08-11T06:02:24;42.45;;;4.90;;
57820;SDS011;43649;49.474;8.466;2022-08-11T06:04:53;24.63;;;4.25;;
57820;SDS011;43649;49.474;8.466;2022-08-11T06:07:25;16.55;;;4.70;;
57820;SDS011;43649;49.474;8.466;2022-08-11T06:09:53;19.98;;;4.13;;
57820;SDS011;43649;49.474;8.466;2022-08-11T06:12:20;22.08;;;3.92;;
57820;SDS011;43649;49.474;8.466;2022-08-11T06:14:49;10.95;;;4.53;;
57820;SDS011;43649;49.474;8.466;2022-08-11T06:17:21;17.40;;;4.32;;
57820;SDS011;43649;49.474;8.466;2022-08-11T06:19:48;17.92;;;4.60;;
57820;SDS011;43649;49.474;8.466;2022-08-11T06:22:18;24.88;;;4.22;;
57820;SDS011;43649;49.474;8.466;2022-08-11T06:24:50;16.65;;;4.22;;
57820;SDS011;43649;49.474;8.466;2022-08-11T06:27:19;17.27;;;4.10;;
57820;SDS011;43649;49.474;8.466;2022-08-11T06:29:46;24.25;;;5.30;;
57820;SDS011;43649;49.474;8.466;2022-08-11T06:32:14;16.50;;;4.47;;
57820;SDS011;43649;49.474;8.466;2022-08-11T06:34:49;12.95;;;4.55;;
57820;SDS011;43649;49.474;8.466;2022-08-11T06:37:23;19.55;;;5.25;;
57820;SDS011;43649;49.474;8.466;2022-08-11T06:40:02;43.28;;;7.43;;
57820;SDS011;43649;49.474;8.466;2022-08-11T06:42:51;19.58;;;4.75;;
57820;SDS011;43649;49.474;8.466;2022-08-11T06:45:23;26.70;;;4.88;;
57820;SDS011;43649;49.474;8.466;2022-08-11T06:47:52;20.50;;;4.47;;
57820;SDS011;43649;49.474;8.466;2022-08-11T06:50:19;21.17;;;4.53;;
57820;SDS011;43649;49.474;8.466;2022-08-11T06:52:47;26.25;;;4.95;;
57820;SDS011;43649;49.474;8.466;2022-08-11T06:55:24;17.08;;;5.00;;
57820;SDS011;43649;49.474;8.466;2022-08-11T07:05:10;13.48;;;4.32;;
57820;SDS011;43649;49.474;8.466;2022-08-11T07:17:29;25.48;;;4.80;;
57820;SDS011;43649;49.474;8.466;2022-08-11T07:20:12;9.45;;;3.90;;
57820;SDS011;43649;49.474;8.466;2022-08-11T07:25:14;19.10;;;3.63;;
57820;SDS011;43649;49.474;8.466;2022-08-11T07:31:15;10.55;;;3.50;;
57820;SDS011;43649;49.474;8.466;2022-08-11T07:33:46;17.60;;;3.80;;
57820;SDS011;43649;49.474;8.466;2022-08-11T07:36:18;12.07;;;3.15;;
57820;SDS011;43649;49.474;8.466;2022-08-11T07:39:13;10.88;;;3.47;;
57820;SDS011;43649;49.474;8.466;2022-08-11T07:42:26;7.78;;;3.00;;
57820;SDS011;43649;49.474;8.466;2022-08-11T07:45:03;7.75;;;3.90;;
57820;SDS011;43649;49.474;8.466;2022-08-11T07:47:51;5.90;;;2.28;;
57820;SDS011;43649;49.474;8.466;2022-08-11T07:50:28;2.70;;;2.00;;
57820;SDS011;43649;49.474;8.466;2022-08-11T07:53:06;3.83;;;2.00;;
57820;SDS011;43649;49.474;8.466;2022-08-11T07:55:44;3.92;;;2.30;;
57820;SDS011;43649;49.474;8.466;2022-08-11T07:58:12;3.15;;;1.90;;
57820;SDS011;43649;49.474;8.466;2022-08-11T08:00:41;3.25;;;2.08;;
57820;SDS011;43649;49.474;8.466;2022-08-11T08:03:10;5.25;;;2.45;;
57820;SDS011;43649;49.474;8.466;2022-08-11T08:05:36;2.70;;;2.50;;
57820;SDS011;43649;49.474;8.466;2022-08-11T08:08:03;4.78;;;2.67;;
57820;SDS011;43649;49.474;8.466;2022-08-11T08:10:29;5.82;;;2.15;;
57820;SDS011;43649;49.474;8.466;2022-08-11T08:12:55;2.42;;;2.25;;
57820;SDS011;43649;49.474;8.466;2022-08-11T08:15:22;4.38;;;1.98;;
57820;SDS011;43649;49.474;8.466;2022-08-11T08:17:48;4.35;;;1.88;;
57820;SDS011;43649;49.474;8.466;2022-08-11T08:20:15;7.90;;;4.00;;
57820;SDS011;43649;49.474;8.466;2022-08-11T08:22:43;8.05;;;2.40;;
57820;SDS011;43649;49.474;8.466;2022-08-11T08:25:09;2.30;;;2.10;;
57820;SDS011;43649;49.474;8.466;2022-08-11T08:27:35;4.90;;;2.28;;
57820;SDS011;43649;49.474;8.466;2022-08-11T08:30:02;6.35;;;2.03;;
57820;SDS011;43649;49.474;8.466;2022-08-11T08:32:29;3.30;;;2.17;;
57820;SDS011;43649;49.474;8.466;2022-08-11T08:34:55;10.45;;;1.85;;
57820;SDS011;43649;49.474;8.466;2022-08-11T08:37:23;2.50;;;2.30;;
57820;SDS011;43649;49.474;8.466;2022-08-11T08:39:50;5.82;;;2.80;;
57820;SDS011;43649;49.474;8.466;2022-08-11T08:42:16;4.00;;;1.98;;
57820;SDS011;43649;49.474;8.466;2022-08-11T08:44:44;2.03;;;1.77;;
57820;SDS011;43649;49.474;8.466;2022-08-11T08:47:15;1.95;;;1.73;;
57820;SDS011;43649;49.474;8.466;2022-08-11T08:49:43;6.85;;;2.22;;
57820;SDS011;43649;49.474;8.466;2022-08-11T08:52:10;3.72;;;1.60;;
57820;SDS011;43649;49.474;8.466;2022-08-11T08:54:41;4.43;;;2.42;;
57820;SDS011;43649;49.474;8.466;2022-08-11T08:57:08;2.50;;;2.30;;
57820;SDS011;43649;49.474;8.466;2022-08-11T08:59:36;7.15;;;1.88;;
57820;SDS011;43649;49.474;8.466;2022-08-11T09:02:05;8.73;;;2.20;;
57820;SDS011;43649;49.474;8.466;2022-08-11T09:04:32;1.90;;;1.75;;
57820;SDS011;43649;49.474;8.466;2022-08-11T09:06:58;2.40;;;2.20;;
57820;SDS011;43649;49.474;8.466;2022-08-11T09:09:31;5.82;;;2.13;;
57820;SDS011;43649;49.474;8.466;2022-08-11T09:11:58;5.40;;;2.47;;
57820;SDS011;43649;49.474;8.466;2022-08-11T09:14:24;3.50;;;2.65;;
57820;SDS011;43649;49.474;8.466;2022-08-11T09:16:51;2.53;;;2.20;;
57820;SDS011;43649;49.474;8.466;2022-08-11T09:19:18;1.90;;;1.80;;
57820;SDS011;43649;49.474;8.466;2022-08-11T09:21:45;2.85;;;2.40;;
57820;SDS011;43649;49.474;8.466;2022-08-11T09:24:12;4.70;;;2.45;;
57820;SDS011;43649;49.474;8.466;2022-08-11T09:26:37;1.83;;;1.73;;
57820;SDS011;43649;49.474;8.466;2022-08-11T09:29:06;2.83;;;2.15;;
57820;SDS011;43649;49.474;8.466;2022-08-11T09:31:34;5.88;;;2.10;;
57820;SDS011;43649;49.474;8.466;2022-08-11T09:34:00;6.55;;;1.95;;
57820;SDS011;43649;49.474;8.466;2022-08-11T09:36:27;8.40;;;3.33;;
57820;SDS011;43649;49.474;8.466;2022-08-11T09:38:52;6.95;;;3.38;;
57820;SDS011;43649;49.474;8.466;2022-08-11T09:41:19;2.70;;;2.47;;
57820;SDS011;43649;49.474;8.466;2022-08-11T09:43:45;8.15;;;2.92;;
57820;SDS011;43649;49.474;8.466;2022-08-11T09:46:12;3.47;;;2.50;;
57820;SDS011;43649;49.474;8.466;2022-08-11T09:48:39;6.82;;;1.70;;
57820;SDS011;43649;49.474;8.466;2022-08-11T09:51:08;1.73;;;1.63;;
57820;SDS011;43649;49.474;8.466;2022-08-11T09:53:35;7.70;;;2.35;;
57820;SDS011;43649;49.474;8.466;2022-08-11T09:56:02;11.45;;;2.00;;
57820;SDS011;43649;49.474;8.466;2022-08-11T09:58:42;2.05;;;1.95;;
57820;SDS011;43649;49.474;8.466;2022-08-11T10:01:09;3.88;;;1.77;;
57820;SDS011;43649;49.474;8.466;2022-08-11T10:03:40;2.20;;;2.05;;
57820;SDS011;43649;49.474;8.466;2022-08-11T10:06:07;5.15;;;1.90;;
57820;SDS011;43649;49.474;8.466;2022-08-11T10:08:34;2.55;;;1.60;;
57820;SDS011;43649;49.474;8.466;2022-08-11T10:11:03;2.45;;;1.75;;
57820;SDS011;43649;49.474;8.466;2022-08-11T10:13:33;2.92;;;1.85;;
57820;SDS011;43649;49.474;8.466;2022-08-11T10:16:02;9.32;;;1.83;;
57820;SDS011;43649;49.474;8.466;2022-08-11T10:18:34;9.15;;;1.80;;
57820;SDS011;43649;49.474;8.466;2022-08-11T10:21:06;2.58;;;1.52;;
57820;SDS011;43649;49.474;8.466;2022-08-11T10:23:34;9.43;;;2.17;;
57820;SDS011;43649;49.474;8.466;2022-08-11T10:26:01;3.95;;;2.13;;
57820;SDS011;43649;49.474;8.466;2022-08-11T10:28:28;3.88;;;1.95;;
57820;SDS011;43649;49.474;8.466;2022-08-11T10:30:55;7.03;;;1.67;;
57820;SDS011;43649;49.474;8.466;2022-08-11T10:33:24;1.52;;;1.40;;
57820;SDS011;43649;49.474;8.466;2022-08-11T10:38:34;2.47;;;1.38;;
57820;SDS011;43649;49.474;8.466;2022-08-11T10:44:14;14.05;;;1.88;;
57820;SDS011;43649;49.474;8.466;2022-08-11T10:46:40;2.88;;;1.80;;
57820;SDS011;43649;49.474;8.466;2022-08-11T10:49:06;7.25;;;2.35;;
57820;SDS011;43649;49.474;8.466;2022-08-11T10:51:33;2.55;;;1.77;;
57820;SDS011;43649;49.474;8.466;2022-08-11T10:54:00;1.75;;;1.65;;
57820;SDS011;43649;49.474;8.466;2022-08-11T10:56:26;5.50;;;1.55;;
57820;SDS011;43649;49.474;8.466;2022-08-11T10:58:53;2.05;;;1.70;;
57820;SDS011;43649;49.474;8.466;2022-08-11T11:01:21;10.10;;;1.83;;
57820;SDS011;43649;49.474;8.466;2022-08-11T11:03:49;1.90;;;1.67;;
57820;SDS011;43649;49.474;8.466;2022-08-11T11:06:21;3.17;;;1.50;;
57820;SDS011;43649;49.474;8.466;2022-08-11T11:08:49;3.58;;;1.55;;
57820;SDS011;43649;49.474;8.466;2022-08-11T11:11:20;4.90;;;1.60;;
57820;SDS011;43649;49.474;8.466;2022-08-11T11:13:48;3.03;;;1.50;;
57820;SDS011;43649;49.474;8.466;2022-08-11T11:16:16;4.28;;;1.77;;
57820;SDS011;43649;49.474;8.466;2022-08-11T11:18:42;4.95;;;1.58;;
57820;SDS011;43649;49.474;8.466;2022-08-11T11:21:09;9.68;;;2.03;;
57820;SDS011;43649;49.474;8.466;2022-08-11T11:23:40;3.78;;;1.80;;
57820;SDS011;43649;49.474;8.466;2022-08-11T11:26:23;1.67;;;1.58;;
57820;SDS011;43649;49.474;8.466;2022-08-11T11:32:10;6.47;;;1.98;;
57820;SDS011;43649;49.474;8.466;2022-08-11T11:34:49;2.40;;;1.88;;
57820;SDS011;43649;49.474;8.466;2022-08-11T11:37:25;9.55;;;1.55;;
57820;SDS011;43649;49.474;8.466;2022-08-11T11:39:56;2.88;;;1.70;;
57820;SDS011;43649;49.474;8.466;2022-08-11T11:42:24;6.95;;;1.70;;
57820;SDS011;43649;49.474;8.466;2022-08-11T11:44:50;5.05;;;1.52;;
57820;SDS011;43649;49.474;8.466;2022-08-11T11:47:15;2.35;;;1.75;;
57820;SDS011;43649;49.474;8.466;2022-08-11T11:49:42;4.00;;;1.45;;
57820;SDS011;43649;49.474;8.466;2022-08-11T11:52:12;5.65;;;1.80;;
57820;SDS011;43649;49.474;8.466;2022-08-11T11:54:39;29.33;;;2.70;;
57820;SDS011;43649;49.474;8.466;2022-08-11T11:57:06;2.45;;;1.55;;
57820;SDS011;43649;49.474;8.466;2022-08-11T11:59:33;6.28;;;1.60;;
57820;SDS011;43649;49.474;8.466;2022-08-11T12:01:58;2.83;;;1.67;;
57820;SDS011;43649;49.474;8.466;2022-08-11T12:04:25;4.78;;;1.88;;
57820;SDS011;43649;49.474;8.466;2022-08-11T12:06:52;4.78;;;1.70;;
57820;SDS011;43649;49.474;8.466;2022-08-11T12:09:18;4.28;;;1.70;;
57820;SDS011;43649;49.474;8.466;2022-08-11T12:11:44;4.68;;;1.52;;
57820;SDS011;43649;49.474;8.466;2022-08-11T12:14:10;2.47;;;1.80;;
57820;SDS011;43649;49.474;8.466;2022-08-11T12:16:41;9.63;;;1.80;;
57820;SDS011;43649;49.474;8.466;2022-08-11T12:19:09;4.22;;;1.60;;
57820;SDS011;43649;49.474;8.466;2022-08-11T12:21:37;5.35;;;2.00;;
57820;SDS011;43649;49.474;8.466;2022-08-11T12:24:04;5.35;;;1.90;;
57820;SDS011;43649;49.474;8.466;2022-08-11T12:26:30;5.30;;;1.90;;
57820;SDS011;43649;49.474;8.466;2022-08-11T12:28:57;1.70;;;1.60;;
57820;SDS011;43649;49.474;8.466;2022-08-11T12:31:23;3.17;;;1.83;;
57820;SDS011;43649;49.474;8.466;2022-08-11T12:33:50;1.52;;;1.48;;
57820;SDS011;43649;49.474;8.466;2022-08-11T12:36:16;3.08;;;1.70;;
57820;SDS011;43649;49.474;8.466;2022-08-11T12:38:45;3.50;;;1.60;;
57820;SDS011;43649;49.474;8.466;2022-08-11T12:41:12;3.42;;;1.40;;
57820;SDS011;43649;49.474;8.466;2022-08-11T12:43:38;5.72;;;1.80;;
57820;SDS011;43649;49.474;8.466;2022-08-11T12:46:08;5.43;;;1.77;;
57820;SDS011;43649;49.474;8.466;2022-08-11T12:48:40;2.95;;;1.80;;
57820;SDS011;43649;49.474;8.466;2022-08-11T12:51:10;2.40;;;1.95;;
57820;SDS011;43649;49.474;8.466;2022-08-11T12:53:36;3.88;;;2.00;;
57820;SDS011;43649;49.474;8.466;2022-08-11T12:56:07;4.50;;;1.83;;
57820;SDS011;43649;49.474;8.466;2022-08-11T12:58:34;2.65;;;1.92;;
57820;SDS011;43649;49.474;8.466;2022-08-11T13:01:04;2.47;;;1.55;;
57820;SDS011;43649;49.474;8.466;2022-08-11T13:03:30;5.13;;;1.60;;
57820;SDS011;43649;49.474;8.466;2022-08-11T13:05:58;4.32;;;1.83;;
57820;SDS011;43649;49.474;8.466;2022-08-11T13:08:27;5.32;;;2.20;;
57820;SDS011;43649;49.474;8.466;2022-08-11T13:10:56;1.65;;;1.55;;
57820;SDS011;43649;49.474;8.466;2022-08-11T13:13:24;3.83;;;1.77;;
57820;SDS011;43649;49.474;8.466;2022-08-11T13:15:50;2.47;;;1.70;;
57820;SDS011;43649;49.474;8.466;2022-08-11T13:18:16;1.83;;;1.70;;
57820;SDS011;43649;49.474;8.466;2022-08-11T13:20:44;9.70;;;1.90;;
57820;SDS011;43649;49.474;8.466;2022-08-11T13:23:10;2.90;;;1.90;;
57820;SDS011;43649;49.474;8.466;2022-08-11T13:25:38;3.60;;;1.70;;
57820;SDS011;43649;49.474;8.466;2022-08-11T13:28:05;6.00;;;1.90;;
57820;SDS011;43649;49.474;8.466;2022-08-11T13:30:30;5.15;;;1.65;;
57820;SDS011;43649;49.474;8.466;2022-08-11T13:32:57;1.92;;;1.73;;
57820;SDS011;43649;49.474;8.466;2022-08-11T13:35:24;2.97;;;1.90;;
57820;SDS011;43649;49.474;8.466;2022-08-11T13:37:50;3.65;;;1.88;;
57820;SDS011;43649;49.474;8.466;2022-08-11T13:40:16;2.58;;;2.40;;
57820;SDS011;43649;49.474;8.466;2022-08-11T13:42:45;4.80;;;1.90;;
57820;SDS011;43649;49.474;8.466;2022-08-11T13:45:12;2.35;;;1.50;;
57820;SDS011;43649;49.474;8.466;2022-08-11T13:47:38;1.92;;;1.40;;
57820;SDS011;43649;49.474;8.466;2022-08-11T13:50:05;3.05;;;1.85;;
57820;SDS011;43649;49.474;8.466;2022-08-11T13:52:33;1.85;;;1.75;;
57820;SDS011;43649;49.474;8.466;2022-08-11T13:54:59;3.03;;;1.73;;
57820;SDS011;43649;49.474;8.466;2022-08-11T13:57:25;2.00;;;1.90;;
57820;SDS011;43649;49.474;8.466;2022-08-11T13:59:55;2.25;;;2.08;;
57820;SDS011;43649;49.474;8.466;2022-08-11T14:02:22;3.20;;;1.58;;
57820;SDS011;43649;49.474;8.466;2022-08-11T14:04:55;5.18;;;1.75;;
57820;SDS011;43649;49.474;8.466;2022-08-11T14:07:23;2.80;;;1.50;;
57820;SDS011;43649;49.474;8.466;2022-08-11T14:09:52;3.67;;;1.60;;
57820;SDS011;43649;49.474;8.466;2022-08-11T14:12:23;1.80;;;1.70;;
57820;SDS011;43649;49.474;8.466;2022-08-11T14:14:51;5.03;;;2.45;;
57820;SDS011;43649;49.474;8.466;2022-08-11T14:17:25;4.03;;;1.85;;
57820;SDS011;43649;49.474;8.466;2022-08-11T14:19:54;3.95;;;1.73;;
57820;SDS011;43649;49.474;8.466;2022-08-11T14:22:20;3.60;;;1.50;;
57820;SDS011;43649;49.474;8.466;2022-08-11T14:24:46;1.92;;;1.42;;
57820;SDS011;43649;49.474;8.466;2022-08-11T14:27:12;5.03;;;1.70;;
57820;SDS011;43649;49.474;8.466;2022-08-11T14:29:39;6.15;;;1.45;;
57820;SDS011;43649;49.474;8.466;2022-08-11T14:32:07;1.27;;;1.13;;
57820;SDS011;43649;49.474;8.466;2022-08-11T14:34:35;2.45;;;1.65;;
57820;SDS011;43649;49.474;8.466;2022-08-11T14:37:04;2.38;;;1.63;;
57820;SDS011;43649;49.474;8.466;2022-08-11T14:39:33;6.50;;;1.52;;
57820;SDS011;43649;49.474;8.466;2022-08-11T14:42:02;1.77;;;1.65;;
57820;SDS011;43649;49.474;8.466;2022-08-11T14:44:30;5.68;;;1.45;;
57820;SDS011;43649;49.474;8.466;2022-08-11T14:46:57;4.60;;;1.73;;
57820;SDS011;43649;49.474;8.466;2022-08-11T14:49:24;1.58;;;1.40;;
57820;SDS011;43649;49.474;8.466;2022-08-11T14:51:51;5.05;;;1.60;;
57820;SDS011;43649;49.474;8.466;2022-08-11T14:54:18;2.38;;;1.20;;
57820;SDS011;43649;49.474;8.466;2022-08-11T14:56:43;4.78;;;1.48;;
57820;SDS011;43649;49.474;8.466;2022-08-11T14:59:09;1.50;;;1.50;;
57820;SDS011;43649;49.474;8.466;2022-08-11T15:01:35;6.43;;;1.95;;
57820;SDS011;43649;49.474;8.466;2022-08-11T15:04:01;1.88;;;1.75;;
57820;SDS011;43649;49.474;8.466;2022-08-11T15:06:28;2.50;;;1.50;;
57820;SDS011;43649;49.474;8.466;2022-08-11T15:08:54;3.55;;;1.63;;
57820;SDS011;43649;49.474;8.466;2022-08-11T15:11:20;2.28;;;1.80;;
57820;SDS011;43649;49.474;8.466;2022-08-11T15:13:47;2.15;;;1.83;;
57820;SDS011;43649;49.474;8.466;2022-08-11T15:16:13;7.13;;;1.45;;
57820;SDS011;43649;49.474;8.466;2022-08-11T15:18:38;3.78;;;1.85;;
57820;SDS011;43649;49.474;8.466;2022-08-11T15:21:05;4.40;;;2.03;;
57820;SDS011;43649;49.474;8.466;2022-08-11T15:23:32;2.03;;;1.90;;
57820;SDS011;43649;49.474;8.466;2022-08-11T15:25:59;4.93;;;1.60;;
57820;SDS011;43649;49.474;8.466;2022-08-11T15:28:28;1.98;;;1.90;;
57820;SDS011;43649;49.474;8.466;2022-08-11T15:30:58;3.42;;;1.67;;
57820;SDS011;43649;49.474;8.466;2022-08-11T15:33:26;10.32;;;1.63;;
57820;SDS011;43649;49.474;8.466;2022-08-11T15:35:53;2.25;;;1.67;;
57820;SDS011;43649;49.474;8.466;2022-08-11T15:38:21;2.45;;;1.52;;
57820;SDS011;43649;49.474;8.466;2022-08-11T15:40:49;2.30;;;1.60;;
57820;SDS011;43649;49.474;8.466;2022-08-11T15:43:19;2.67;;;2.33;;
57820;SDS011;43649;49.474;8.466;2022-08-11T15:45:47;5.60;;;2.35;;
57820;SDS011;43649;49.474;8.466;2022-08-11T15:48:18;7.95;;;1.85;;
57820;SDS011;43649;49.474;8.466;2022-08-11T15:50:51;3.05;;;1.40;;
57820;SDS011;43649;49.474;8.466;2022-08-11T15:53:19;2.58;;;1.52;;
57820;SDS011;43649;49.474;8.466;2022-08-11T15:55:52;1.70;;;1.60;;
57820;SDS011;43649;49.474;8.466;2022-08-11T15:58:19;4.47;;;1.55;;
57820;SDS011;43649;49.474;8.466;2022-08-11T16:00:47;2.25;;;1.50;;
57820;SDS011;43649;49.474;8.466;2022-08-11T16:03:14;2.58;;;1.70;;
57820;SDS011;43649;49.474;8.466;2022-08-11T16:05:42;6.53;;;2.08;;
57820;SDS011;43649;49.474;8.466;2022-08-11T16:08:09;2.47;;;2.28;;
57820;SDS011;43649;49.474;8.466;2022-08-11T16:10:35;1.83;;;1.73;;
57820;SDS011;43649;49.474;8.466;2022-08-11T16:13:04;2.42;;;1.70;;
57820;SDS011;43649;49.474;8.466;2022-08-11T16:15:31;5.07;;;1.60;;
57820;SDS011;43649;49.474;8.466;2022-08-11T16:17:58;10.88;;;1.55;;
57820;SDS011;43649;49.474;8.466;2022-08-11T16:20:27;4.55;;;1.75;;